sensor_id;sensor_type;location;lat;lon;timestamp;temperature;humidity
73360;DHT22;63092;43.582;19.528;2023-02-19T00:01:27;5.20;98.60
73360;DHT22;63092;43.582;19.528;2023-02-19T00:03:55;5.20;98.30
73360;DHT22;63092;43.582;19.528;2023-02-19T00:06:23;5.20;98.50
73360;DHT22;63092;43.582;19.528;2023-02-19T00:08:49;5.10;98.80
73360;DHT22;63092;43.582;19.528;2023-02-19T00:11:17;5.10;98.80
73360;DHT22;63092;43.582;19.528;2023-02-19T00:13:45;5.00;98.60
73360;DHT22;63092;43.582;19.528;2023-02-19T00:16:15;5.00;98.80
73360;DHT22;63092;43.582;19.528;2023-02-19T00:18:41;4.90;99.10
73360;DHT22;63092;43.582;19.528;2023-02-19T00:21:07;4.70;99.40
73360;DHT22;63092;43.582;19.528;2023-02-19T00:23:33;4.60;99.90
73360;DHT22;63092;43.582;19.528;2023-02-19T00:26:07;4.60;99.80
73360;DHT22;63092;43.582;19.528;2023-02-19T00:28:33;4.60;99.90
73360;DHT22;63092;43.582;19.528;2023-02-19T00:31:17;4.60;99.80
73360;DHT22;63092;43.582;19.528;2023-02-19T00:33:44;4.60;99.80
73360;DHT22;63092;43.582;19.528;2023-02-19T00:36:11;4.70;99.60
73360;DHT22;63092;43.582;19.528;2023-02-19T00:38:38;4.60;99.70
73360;DHT22;63092;43.582;19.528;2023-02-19T00:41:04;4.70;99.50
73360;DHT22;63092;43.582;19.528;2023-02-19T00:43:54;4.70;99.50
73360;DHT22;63092;43.582;19.528;2023-02-19T00:46:25;4.80;99.30
73360;DHT22;63092;43.582;19.528;2023-02-19T00:48:51;4.80;99.20
73360;DHT22;63092;43.582;19.528;2023-02-19T00:51:18;4.70;99.10
73360;DHT22;63092;43.582;19.528;2023-02-19T00:53:44;4.70;99.00
73360;DHT22;63092;43.582;19.528;2023-02-19T00:56:10;4.70;99.20
73360;DHT22;63092;43.582;19.528;2023-02-19T00:58:36;4.70;99.20
73360;DHT22;63092;43.582;19.528;2023-02-19T01:01:03;4.60;99.10
73360;DHT22;63092;43.582;19.528;2023-02-19T01:03:31;4.60;99.20
73360;DHT22;63092;43.582;19.528;2023-02-19T01:05:57;4.60;99.10
73360;DHT22;63092;43.582;19.528;2023-02-19T01:08:23;4.60;99.00
73360;DHT22;63092;43.582;19.528;2023-02-19T01:10:49;4.70;98.70
73360;DHT22;63092;43.582;19.528;2023-02-19T01:13:15;4.70;98.50
73360;DHT22;63092;43.582;19.528;2023-02-19T01:15:41;4.70;98.50
73360;DHT22;63092;43.582;19.528;2023-02-19T01:18:07;4.60;98.40
73360;DHT22;63092;43.582;19.528;2023-02-19T01:20:33;4.70;98.30
73360;DHT22;63092;43.582;19.528;2023-02-19T01:22:59;4.60;98.20
73360;DHT22;63092;43.582;19.528;2023-02-19T01:25:24;4.60;98.60
73360;DHT22;63092;43.582;19.528;2023-02-19T01:27:50;4.60;98.40
73360;DHT22;63092;43.582;19.528;2023-02-19T01:30:15;4.50;98.40
73360;DHT22;63092;43.582;19.528;2023-02-19T01:32:41;4.50;98.70
73360;DHT22;63092;43.582;19.528;2023-02-19T01:35:07;4.40;99.00
73360;DHT22;63092;43.582;19.528;2023-02-19T01:37:33;4.40;98.90
73360;DHT22;63092;43.582;19.528;2023-02-19T01:39:59;4.40;98.90
73360;DHT22;63092;43.582;19.528;2023-02-19T01:42:24;4.30;98.80
73360;DHT22;63092;43.582;19.528;2023-02-19T01:47:17;4.10;99.90
73360;DHT22;63092;43.582;19.528;2023-02-19T01:49:54;4.20;99.70
73360;DHT22;63092;43.582;19.528;2023-02-19T01:52:30;4.20;99.30
73360;DHT22;63092;43.582;19.528;2023-02-19T01:55:01;4.20;99.40
73360;DHT22;63092;43.582;19.528;2023-02-19T01:57:32;4.20;99.40
73360;DHT22;63092;43.582;19.528;2023-02-19T02:00:04;4.20;99.30
73360;DHT22;63092;43.582;19.528;2023-02-19T02:02:30;4.30;99.30
73360;DHT22;63092;43.582;19.528;2023-02-19T02:04:58;4.30;99.10
73360;DHT22;63092;43.582;19.528;2023-02-19T02:07:25;4.20;99.10
73360;DHT22;63092;43.582;19.528;2023-02-19T02:10:09;4.00;99.50
73360;DHT22;63092;43.582;19.528;2023-02-19T02:12:47;4.00;99.50
73360;DHT22;63092;43.582;19.528;2023-02-19T02:15:14;3.90;99.70
73360;DHT22;63092;43.582;19.528;2023-02-19T02:17:59;4.00;99.20
73360;DHT22;63092;43.582;19.528;2023-02-19T02:23:43;4.00;99.10
73360;DHT22;63092;43.582;19.528;2023-02-19T02:31:37;4.10;99.00
73360;DHT22;63092;43.582;19.528;2023-02-19T02:34:16;4.10;98.90
73360;DHT22;63092;43.582;19.528;2023-02-19T02:36:44;4.00;99.10
73360;DHT22;63092;43.582;19.528;2023-02-19T02:39:18;3.90;99.60
73360;DHT22;63092;43.582;19.528;2023-02-19T02:41:49;3.90;99.70
73360;DHT22;63092;43.582;19.528;2023-02-19T02:44:39;3.90;99.60
73360;DHT22;63092;43.582;19.528;2023-02-19T02:47:06;3.90;99.40
73360;DHT22;63092;43.582;19.528;2023-02-19T02:49:52;3.90;99.50
73360;DHT22;63092;43.582;19.528;2023-02-19T02:52:31;3.90;99.30
73360;DHT22;63092;43.582;19.528;2023-02-19T02:55:16;3.90;99.30
73360;DHT22;63092;43.582;19.528;2023-02-19T02:57:42;3.90;99.50
73360;DHT22;63092;43.582;19.528;2023-02-19T03:00:08;3.90;99.10
73360;DHT22;63092;43.582;19.528;2023-02-19T03:02:35;3.60;99.90
73360;DHT22;63092;43.582;19.528;2023-02-19T03:05:21;3.60;99.90
73360;DHT22;63092;43.582;19.528;2023-02-19T03:08:37;3.60;99.90
73360;DHT22;63092;43.582;19.528;2023-02-19T03:11:06;3.70;99.90
73360;DHT22;63092;43.582;19.528;2023-02-19T03:13:57;3.70;99.90
73360;DHT22;63092;43.582;19.528;2023-02-19T03:16:43;3.70;99.80
73360;DHT22;63092;43.582;19.528;2023-02-19T03:19:33;3.80;99.70
73360;DHT22;63092;43.582;19.528;2023-02-19T03:22:30;3.70;99.70
73360;DHT22;63092;43.582;19.528;2023-02-19T03:25:09;3.70;99.70
73360;DHT22;63092;43.582;19.528;2023-02-19T03:27:56;3.70;99.60
73360;DHT22;63092;43.582;19.528;2023-02-19T03:30:27;3.70;99.70
73360;DHT22;63092;43.582;19.528;2023-02-19T03:33:00;3.60;99.90
73360;DHT22;63092;43.582;19.528;2023-02-19T03:35:33;3.50;99.90
73360;DHT22;63092;43.582;19.528;2023-02-19T03:38:09;3.50;99.90
73360;DHT22;63092;43.582;19.528;2023-02-19T03:43:32;3.30;99.90
73360;DHT22;63092;43.582;19.528;2023-02-19T03:46:12;3.30;99.90
73360;DHT22;63092;43.582;19.528;2023-02-19T03:51:49;3.30;99.90
73360;DHT22;63092;43.582;19.528;2023-02-19T03:54:23;3.30;99.90
73360;DHT22;63092;43.582;19.528;2023-02-19T03:57:05;3.30;99.90
73360;DHT22;63092;43.582;19.528;2023-02-19T03:59:49;3.30;99.90
73360;DHT22;63092;43.582;19.528;2023-02-19T04:02:46;3.10;99.90
73360;DHT22;63092;43.582;19.528;2023-02-19T04:05:20;3.30;99.90
73360;DHT22;63092;43.582;19.528;2023-02-19T04:07:49;3.20;99.90
73360;DHT22;63092;43.582;19.528;2023-02-19T04:10:17;3.10;99.90
73360;DHT22;63092;43.582;19.528;2023-02-19T04:12:52;3.00;99.90
73360;DHT22;63092;43.582;19.528;2023-02-19T04:15:22;3.10;99.90
73360;DHT22;63092;43.582;19.528;2023-02-19T04:18:08;3.20;99.90
73360;DHT22;63092;43.582;19.528;2023-02-19T04:20:39;3.20;99.90
73360;DHT22;63092;43.582;19.528;2023-02-19T04:23:06;3.20;99.90
73360;DHT22;63092;43.582;19.528;2023-02-19T04:25:32;3.00;99.90
73360;DHT22;63092;43.582;19.528;2023-02-19T04:27:59;3.10;99.90
73360;DHT22;63092;43.582;19.528;2023-02-19T04:30:24;3.10;99.90
73360;DHT22;63092;43.582;19.528;2023-02-19T04:32:50;3.10;99.90
73360;DHT22;63092;43.582;19.528;2023-02-19T04:35:16;3.20;99.90
73360;DHT22;63092;43.582;19.528;2023-02-19T04:37:41;3.20;99.90
73360;DHT22;63092;43.582;19.528;2023-02-19T04:40:08;3.20;99.90
73360;DHT22;63092;43.582;19.528;2023-02-19T04:42:34;3.20;99.60
73360;DHT22;63092;43.582;19.528;2023-02-19T04:44:59;3.30;99.60
73360;DHT22;63092;43.582;19.528;2023-02-19T04:47:25;3.20;99.60
73360;DHT22;63092;43.582;19.528;2023-02-19T04:49:51;3.00;99.80
73360;DHT22;63092;43.582;19.528;2023-02-19T04:52:16;3.00;99.90
73360;DHT22;63092;43.582;19.528;2023-02-19T04:54:42;3.00;99.90
73360;DHT22;63092;43.582;19.528;2023-02-19T04:57:07;3.00;99.90
73360;DHT22;63092;43.582;19.528;2023-02-19T04:59:33;2.90;99.90
73360;DHT22;63092;43.582;19.528;2023-02-19T05:01:59;3.00;99.90
73360;DHT22;63092;43.582;19.528;2023-02-19T05:04:25;2.90;99.90
73360;DHT22;63092;43.582;19.528;2023-02-19T05:06:50;2.90;99.90
73360;DHT22;63092;43.582;19.528;2023-02-19T05:09:16;2.90;99.90
73360;DHT22;63092;43.582;19.528;2023-02-19T05:11:42;2.90;99.90
73360;DHT22;63092;43.582;19.528;2023-02-19T05:14:07;2.90;99.90
73360;DHT22;63092;43.582;19.528;2023-02-19T05:16:33;2.90;99.90
73360;DHT22;63092;43.582;19.528;2023-02-19T05:18:59;2.90;99.90
73360;DHT22;63092;43.582;19.528;2023-02-19T05:21:24;2.90;99.90
73360;DHT22;63092;43.582;19.528;2023-02-19T05:23:50;3.00;99.90
73360;DHT22;63092;43.582;19.528;2023-02-19T05:26:19;3.00;99.90
73360;DHT22;63092;43.582;19.528;2023-02-19T05:28:46;2.90;99.90
73360;DHT22;63092;43.582;19.528;2023-02-19T05:31:13;2.90;99.90
73360;DHT22;63092;43.582;19.528;2023-02-19T05:33:39;2.90;99.90
73360;DHT22;63092;43.582;19.528;2023-02-19T05:36:10;2.90;99.90
73360;DHT22;63092;43.582;19.528;2023-02-19T05:38:36;2.80;99.90
73360;DHT22;63092;43.582;19.528;2023-02-19T05:41:21;2.80;99.90
73360;DHT22;63092;43.582;19.528;2023-02-19T05:43:48;2.70;99.90
73360;DHT22;63092;43.582;19.528;2023-02-19T05:46:16;2.70;99.90
73360;DHT22;63092;43.582;19.528;2023-02-19T05:48:44;2.70;99.90
73360;DHT22;63092;43.582;19.528;2023-02-19T05:51:13;2.60;99.90
73360;DHT22;63092;43.582;19.528;2023-02-19T05:53:39;2.70;99.90
73360;DHT22;63092;43.582;19.528;2023-02-19T05:56:33;2.70;99.90
73360;DHT22;63092;43.582;19.528;2023-02-19T05:59:17;2.80;99.90
73360;DHT22;63092;43.582;19.528;2023-02-19T06:01:43;2.90;99.90
73360;DHT22;63092;43.582;19.528;2023-02-19T06:04:13;2.80;99.90
73360;DHT22;63092;43.582;19.528;2023-02-19T06:06:40;2.70;99.90
73360;DHT22;63092;43.582;19.528;2023-02-19T06:09:07;2.80;99.90
73360;DHT22;63092;43.582;19.528;2023-02-19T06:11:33;2.80;99.90
73360;DHT22;63092;43.582;19.528;2023-02-19T06:13:59;2.80;99.90
73360;DHT22;63092;43.582;19.528;2023-02-19T06:16:25;2.80;99.90
73360;DHT22;63092;43.582;19.528;2023-02-19T06:18:51;2.80;99.90
73360;DHT22;63092;43.582;19.528;2023-02-19T06:21:18;2.80;99.90
73360;DHT22;63092;43.582;19.528;2023-02-19T06:23:44;2.90;99.90
73360;DHT22;63092;43.582;19.528;2023-02-19T06:26:14;3.00;99.90
73360;DHT22;63092;43.582;19.528;2023-02-19T06:28:40;3.00;99.90
73360;DHT22;63092;43.582;19.528;2023-02-19T06:31:08;3.00;99.90
73360;DHT22;63092;43.582;19.528;2023-02-19T06:33:34;3.00;99.90
73360;DHT22;63092;43.582;19.528;2023-02-19T06:36:02;3.10;99.80
73360;DHT22;63092;43.582;19.528;2023-02-19T06:38:29;3.20;99.90
73360;DHT22;63092;43.582;19.528;2023-02-19T06:40:59;3.20;99.50
73360;DHT22;63092;43.582;19.528;2023-02-19T06:43:25;3.30;99.20
73360;DHT22;63092;43.582;19.528;2023-02-19T06:45:51;3.30;99.20
73360;DHT22;63092;43.582;19.528;2023-02-19T06:48:16;3.40;99.20
73360;DHT22;63092;43.582;19.528;2023-02-19T06:50:42;3.40;99.10
73360;DHT22;63092;43.582;19.528;2023-02-19T06:53:07;3.40;99.30
73360;DHT22;63092;43.582;19.528;2023-02-19T06:55:36;3.30;99.40
73360;DHT22;63092;43.582;19.528;2023-02-19T06:58:01;3.30;99.60
73360;DHT22;63092;43.582;19.528;2023-02-19T07:00:27;3.30;99.70
73360;DHT22;63092;43.582;19.528;2023-02-19T07:02:53;3.40;99.70
73360;DHT22;63092;43.582;19.528;2023-02-19T07:05:21;3.40;99.70
73360;DHT22;63092;43.582;19.528;2023-02-19T07:07:47;3.40;99.50
73360;DHT22;63092;43.582;19.528;2023-02-19T07:10:13;3.20;99.90
73360;DHT22;63092;43.582;19.528;2023-02-19T07:12:39;3.30;99.90
73360;DHT22;63092;43.582;19.528;2023-02-19T07:15:05;3.40;99.90
73360;DHT22;63092;43.582;19.528;2023-02-19T07:17:30;3.50;99.90
73360;DHT22;63092;43.582;19.528;2023-02-19T07:19:58;3.60;99.70
73360;DHT22;63092;43.582;19.528;2023-02-19T07:22:23;3.50;99.90
73360;DHT22;63092;43.582;19.528;2023-02-19T07:24:49;3.60;99.70
73360;DHT22;63092;43.582;19.528;2023-02-19T07:27:14;3.60;99.90
73360;DHT22;63092;43.582;19.528;2023-02-19T07:29:40;3.70;99.70
73360;DHT22;63092;43.582;19.528;2023-02-19T07:32:06;3.80;99.50
73360;DHT22;63092;43.582;19.528;2023-02-19T07:34:31;4.00;99.30
73360;DHT22;63092;43.582;19.528;2023-02-19T07:36:57;4.10;98.80
73360;DHT22;63092;43.582;19.528;2023-02-19T07:39:22;3.90;99.50
73360;DHT22;63092;43.582;19.528;2023-02-19T07:41:48;4.20;99.00
73360;DHT22;63092;43.582;19.528;2023-02-19T07:44:14;4.30;99.00
73360;DHT22;63092;43.582;19.528;2023-02-19T07:46:42;4.40;98.90
73360;DHT22;63092;43.582;19.528;2023-02-19T07:49:07;4.50;99.00
73360;DHT22;63092;43.582;19.528;2023-02-19T07:51:33;4.20;99.10
73360;DHT22;63092;43.582;19.528;2023-02-19T07:53:59;4.40;98.40
73360;DHT22;63092;43.582;19.528;2023-02-19T07:56:24;4.60;98.00
73360;DHT22;63092;43.582;19.528;2023-02-19T07:58:50;4.60;98.70
73360;DHT22;63092;43.582;19.528;2023-02-19T08:01:21;4.80;98.40
73360;DHT22;63092;43.582;19.528;2023-02-19T08:04:05;5.00;97.20
73360;DHT22;63092;43.582;19.528;2023-02-19T08:06:31;4.90;97.50
73360;DHT22;63092;43.582;19.528;2023-02-19T08:08:56;4.90;97.80
73360;DHT22;63092;43.582;19.528;2023-02-19T08:11:22;4.90;98.20
73360;DHT22;63092;43.582;19.528;2023-02-19T08:14:06;5.20;97.80
73360;DHT22;63092;43.582;19.528;2023-02-19T08:16:32;5.20;97.30
73360;DHT22;63092;43.582;19.528;2023-02-19T08:18:58;5.40;97.10
73360;DHT22;63092;43.582;19.528;2023-02-19T08:21:23;5.50;96.90
73360;DHT22;63092;43.582;19.528;2023-02-19T08:23:49;5.50;96.60
73360;DHT22;63092;43.582;19.528;2023-02-19T08:26:15;5.40;97.00
73360;DHT22;63092;43.582;19.528;2023-02-19T08:28:41;5.60;96.70
73360;DHT22;63092;43.582;19.528;2023-02-19T08:31:08;5.50;97.10
73360;DHT22;63092;43.582;19.528;2023-02-19T08:33:35;5.50;97.10
73360;DHT22;63092;43.582;19.528;2023-02-19T08:36:04;5.40;97.40
73360;DHT22;63092;43.582;19.528;2023-02-19T08:38:30;5.60;97.20
73360;DHT22;63092;43.582;19.528;2023-02-19T08:40:56;5.60;97.10
73360;DHT22;63092;43.582;19.528;2023-02-19T08:43:22;5.80;96.70
73360;DHT22;63092;43.582;19.528;2023-02-19T08:45:51;6.00;96.40
73360;DHT22;63092;43.582;19.528;2023-02-19T08:48:17;6.00;96.00
73360;DHT22;63092;43.582;19.528;2023-02-19T08:50:43;6.00;96.00
73360;DHT22;63092;43.582;19.528;2023-02-19T08:53:09;6.30;95.50
73360;DHT22;63092;43.582;19.528;2023-02-19T08:55:36;6.50;95.40
73360;DHT22;63092;43.582;19.528;2023-02-19T08:58:02;6.60;94.80
73360;DHT22;63092;43.582;19.528;2023-02-19T09:00:27;6.90;93.80
73360;DHT22;63092;43.582;19.528;2023-02-19T09:02:53;7.00;93.30
73360;DHT22;63092;43.582;19.528;2023-02-19T09:05:19;7.10;92.50
73360;DHT22;63092;43.582;19.528;2023-02-19T09:07:44;7.10;92.80
73360;DHT22;63092;43.582;19.528;2023-02-19T09:10:12;7.20;93.40
73360;DHT22;63092;43.582;19.528;2023-02-19T09:12:38;7.20;93.10
73360;DHT22;63092;43.582;19.528;2023-02-19T09:15:05;7.40;92.00
73360;DHT22;63092;43.582;19.528;2023-02-19T09:17:31;7.50;92.00
73360;DHT22;63092;43.582;19.528;2023-02-19T09:19:57;7.70;92.40
73360;DHT22;63092;43.582;19.528;2023-02-19T09:22:22;7.70;92.10
73360;DHT22;63092;43.582;19.528;2023-02-19T09:24:48;7.80;92.10
73360;DHT22;63092;43.582;19.528;2023-02-19T09:27:15;7.90;91.90
73360;DHT22;63092;43.582;19.528;2023-02-19T09:29:41;8.10;91.60
73360;DHT22;63092;43.582;19.528;2023-02-19T09:32:07;8.30;90.90
73360;DHT22;63092;43.582;19.528;2023-02-19T09:34:33;8.40;90.70
73360;DHT22;63092;43.582;19.528;2023-02-19T09:36:58;8.50;90.00
73360;DHT22;63092;43.582;19.528;2023-02-19T09:39:24;8.50;88.10
73360;DHT22;63092;43.582;19.528;2023-02-19T09:44:39;8.80;85.90
73360;DHT22;63092;43.582;19.528;2023-02-19T09:47:24;8.90;85.30
73360;DHT22;63092;43.582;19.528;2023-02-19T09:49:54;9.10;84.00
73360;DHT22;63092;43.582;19.528;2023-02-19T09:55:29;9.50;81.50
73360;DHT22;63092;43.582;19.528;2023-02-19T09:57:56;9.70;80.40
73360;DHT22;63092;43.582;19.528;2023-02-19T10:00:28;9.90;79.20
73360;DHT22;63092;43.582;19.528;2023-02-19T10:03:08;9.90;78.50
73360;DHT22;63092;43.582;19.528;2023-02-19T10:05:37;10.10;78.40
73360;DHT22;63092;43.582;19.528;2023-02-19T10:08:05;10.20;77.70
73360;DHT22;63092;43.582;19.528;2023-02-19T10:10:35;10.40;77.70
73360;DHT22;63092;43.582;19.528;2023-02-19T10:13:20;10.50;75.80
73360;DHT22;63092;43.582;19.528;2023-02-19T10:15:47;10.70;75.90
73360;DHT22;63092;43.582;19.528;2023-02-19T10:18:23;10.90;73.00
73360;DHT22;63092;43.582;19.528;2023-02-19T10:20:51;11.10;72.30
73360;DHT22;63092;43.582;19.528;2023-02-19T10:23:17;11.20;72.80
73360;DHT22;63092;43.582;19.528;2023-02-19T10:25:52;11.30;72.40
73360;DHT22;63092;43.582;19.528;2023-02-19T10:28:21;11.40;73.20
73360;DHT22;63092;43.582;19.528;2023-02-19T10:30:52;11.40;71.40
73360;DHT22;63092;43.582;19.528;2023-02-19T10:33:18;11.50;71.30
73360;DHT22;63092;43.582;19.528;2023-02-19T10:36:03;11.60;71.60
73360;DHT22;63092;43.582;19.528;2023-02-19T10:38:38;11.80;71.60
73360;DHT22;63092;43.582;19.528;2023-02-19T10:41:16;12.00;69.90
73360;DHT22;63092;43.582;19.528;2023-02-19T10:43:49;12.10;69.10
73360;DHT22;63092;43.582;19.528;2023-02-19T10:46:25;12.30;69.10
73360;DHT22;63092;43.582;19.528;2023-02-19T10:51:19;12.40;67.80
73360;DHT22;63092;43.582;19.528;2023-02-19T10:53:51;12.50;67.10
73360;DHT22;63092;43.582;19.528;2023-02-19T10:56:27;12.60;66.90
73360;DHT22;63092;43.582;19.528;2023-02-19T10:58:54;12.60;66.70
73360;DHT22;63092;43.582;19.528;2023-02-19T11:01:24;12.80;66.40
73360;DHT22;63092;43.582;19.528;2023-02-19T11:04:16;12.90;65.70
73360;DHT22;63092;43.582;19.528;2023-02-19T11:06:42;13.00;65.90
73360;DHT22;63092;43.582;19.528;2023-02-19T11:09:27;13.10;65.60
73360;DHT22;63092;43.582;19.528;2023-02-19T11:11:54;13.10;65.20
73360;DHT22;63092;43.582;19.528;2023-02-19T11:14:23;13.10;64.90
73360;DHT22;63092;43.582;19.528;2023-02-19T11:16:52;13.20;64.50
73360;DHT22;63092;43.582;19.528;2023-02-19T11:19:28;13.20;64.70
73360;DHT22;63092;43.582;19.528;2023-02-19T11:21:54;13.20;64.50
73360;DHT22;63092;43.582;19.528;2023-02-19T11:24:32;13.30;64.50
73360;DHT22;63092;43.582;19.528;2023-02-19T11:27:04;13.30;64.30
73360;DHT22;63092;43.582;19.528;2023-02-19T11:29:31;13.30;63.90
73360;DHT22;63092;43.582;19.528;2023-02-19T11:32:28;13.10;64.30
73360;DHT22;63092;43.582;19.528;2023-02-19T11:35:14;13.10;64.30
73360;DHT22;63092;43.582;19.528;2023-02-19T11:37:55;13.10;65.10
73360;DHT22;63092;43.582;19.528;2023-02-19T11:46:29;13.30;64.20
73360;DHT22;63092;43.582;19.528;2023-02-19T11:54:46;13.40;63.90
73360;DHT22;63092;43.582;19.528;2023-02-19T11:57:40;13.50;63.40
73360;DHT22;63092;43.582;19.528;2023-02-19T12:08:26;14.10;62.10
73360;DHT22;63092;43.582;19.528;2023-02-19T12:14:47;14.40;60.90
73360;DHT22;63092;43.582;19.528;2023-02-19T12:25:52;14.60;60.10
73360;DHT22;63092;43.582;19.528;2023-02-19T12:28:40;14.60;60.30
73360;DHT22;63092;43.582;19.528;2023-02-19T12:42:50;14.40;61.30
73360;DHT22;63092;43.582;19.528;2023-02-19T12:44:54;14.30;61.50
73360;DHT22;63092;43.582;19.528;2023-02-19T12:47:26;14.30;61.40
73360;DHT22;63092;43.582;19.528;2023-02-19T12:50:06;14.20;61.90
73360;DHT22;63092;43.582;19.528;2023-02-19T12:52:36;14.20;61.80
73360;DHT22;63092;43.582;19.528;2023-02-19T12:55:20;14.20;61.80
73360;DHT22;63092;43.582;19.528;2023-02-19T12:57:47;14.40;61.70
73360;DHT22;63092;43.582;19.528;2023-02-19T13:00:42;14.50;61.80
73360;DHT22;63092;43.582;19.528;2023-02-19T13:08:43;14.70;60.50
73360;DHT22;63092;43.582;19.528;2023-02-19T13:11:28;14.80;61.10
73360;DHT22;63092;43.582;19.528;2023-02-19T13:19:53;14.90;59.80
73360;DHT22;63092;43.582;19.528;2023-02-19T13:25:47;14.80;60.10
73360;DHT22;63092;43.582;19.528;2023-02-19T13:31:37;14.90;60.10
73360;DHT22;63092;43.582;19.528;2023-02-19T13:34:27;15.00;59.90
73360;DHT22;63092;43.582;19.528;2023-02-19T13:36:56;15.10;58.90
73360;DHT22;63092;43.582;19.528;2023-02-19T13:39:23;15.10;59.10
73360;DHT22;63092;43.582;19.528;2023-02-19T13:41:56;15.10;58.30
73360;DHT22;63092;43.582;19.528;2023-02-19T13:44:33;15.20;58.80
73360;DHT22;63092;43.582;19.528;2023-02-19T13:46:59;15.30;59.20
73360;DHT22;63092;43.582;19.528;2023-02-19T13:51:57;15.40;59.50
73360;DHT22;63092;43.582;19.528;2023-02-19T13:59:52;15.60;58.10
73360;DHT22;63092;43.582;19.528;2023-02-19T14:02:26;15.60;59.00
73360;DHT22;63092;43.582;19.528;2023-02-19T14:05:00;15.60;58.50
73360;DHT22;63092;43.582;19.528;2023-02-19T14:09:52;15.80;57.90
73360;DHT22;63092;43.582;19.528;2023-02-19T14:12:21;15.80;57.80
73360;DHT22;63092;43.582;19.528;2023-02-19T14:14:54;15.80;58.60
73360;DHT22;63092;43.582;19.528;2023-02-19T14:17:39;15.80;57.30
73360;DHT22;63092;43.582;19.528;2023-02-19T14:27:45;15.80;56.40
73360;DHT22;63092;43.582;19.528;2023-02-19T14:30:11;15.80;56.60
73360;DHT22;63092;43.582;19.528;2023-02-19T14:32:39;15.80;56.50
73360;DHT22;63092;43.582;19.528;2023-02-19T14:35:05;15.80;56.50
73360;DHT22;63092;43.582;19.528;2023-02-19T14:37:31;15.80;56.70
73360;DHT22;63092;43.582;19.528;2023-02-19T14:39:58;15.70;56.50
73360;DHT22;63092;43.582;19.528;2023-02-19T14:42:25;15.70;56.80
73360;DHT22;63092;43.582;19.528;2023-02-19T14:44:58;15.70;56.80
73360;DHT22;63092;43.582;19.528;2023-02-19T14:47:28;15.60;57.20
73360;DHT22;63092;43.582;19.528;2023-02-19T14:50:06;15.50;57.60
73360;DHT22;63092;43.582;19.528;2023-02-19T14:53:00;15.40;57.80
73360;DHT22;63092;43.582;19.528;2023-02-19T14:57:55;15.30;58.20
73360;DHT22;63092;43.582;19.528;2023-02-19T15:02:49;15.20;58.30
73360;DHT22;63092;43.582;19.528;2023-02-19T15:05:24;15.20;58.60
73360;DHT22;63092;43.582;19.528;2023-02-19T15:07:52;15.10;59.00
73360;DHT22;63092;43.582;19.528;2023-02-19T15:10:18;15.00;59.40
73360;DHT22;63092;43.582;19.528;2023-02-19T15:12:55;15.00;59.20
73360;DHT22;63092;43.582;19.528;2023-02-19T15:15:26;15.00;59.30
73360;DHT22;63092;43.582;19.528;2023-02-19T15:17:54;14.90;60.00
73360;DHT22;63092;43.582;19.528;2023-02-19T15:20:27;14.90;59.80
73360;DHT22;63092;43.582;19.528;2023-02-19T15:22:54;14.80;60.00
73360;DHT22;63092;43.582;19.528;2023-02-19T15:25:22;14.70;60.20
73360;DHT22;63092;43.582;19.528;2023-02-19T15:27:49;14.70;60.90
73360;DHT22;63092;43.582;19.528;2023-02-19T15:30:22;14.60;60.80
73360;DHT22;63092;43.582;19.528;2023-02-19T15:33:15;14.50;61.40
73360;DHT22;63092;43.582;19.528;2023-02-19T15:35:49;14.50;61.30
73360;DHT22;63092;43.582;19.528;2023-02-19T15:38:15;14.40;61.80
73360;DHT22;63092;43.582;19.528;2023-02-19T15:40:44;14.30;61.90
73360;DHT22;63092;43.582;19.528;2023-02-19T15:43:28;14.30;62.20
73360;DHT22;63092;43.582;19.528;2023-02-19T15:45:59;14.10;62.10
73360;DHT22;63092;43.582;19.528;2023-02-19T15:48:49;14.10;62.80
73360;DHT22;63092;43.582;19.528;2023-02-19T15:51:24;14.10;62.70
73360;DHT22;63092;43.582;19.528;2023-02-19T15:53:54;14.00;62.40
73360;DHT22;63092;43.582;19.528;2023-02-19T15:56:29;13.90;62.90
73360;DHT22;63092;43.582;19.528;2023-02-19T16:02:03;13.80;63.20
73360;DHT22;63092;43.582;19.528;2023-02-19T16:04:29;13.70;63.90
73360;DHT22;63092;43.582;19.528;2023-02-19T16:07:00;13.60;64.40
73360;DHT22;63092;43.582;19.528;2023-02-19T16:09:37;13.50;64.20
73360;DHT22;63092;43.582;19.528;2023-02-19T16:12:18;13.50;64.10
73360;DHT22;63092;43.582;19.528;2023-02-19T16:14:44;13.50;64.50
73360;DHT22;63092;43.582;19.528;2023-02-19T16:19:43;13.40;64.60
73360;DHT22;63092;43.582;19.528;2023-02-19T16:22:15;13.40;65.00
73360;DHT22;63092;43.582;19.528;2023-02-19T16:24:51;13.40;65.00
73360;DHT22;63092;43.582;19.528;2023-02-19T16:27:38;13.30;65.10
73360;DHT22;63092;43.582;19.528;2023-02-19T16:32:40;13.20;65.50
73360;DHT22;63092;43.582;19.528;2023-02-19T16:35:38;13.20;65.60
73360;DHT22;63092;43.582;19.528;2023-02-19T16:38:14;13.10;65.50
73360;DHT22;63092;43.582;19.528;2023-02-19T16:43:30;13.10;66.70
73360;DHT22;63092;43.582;19.528;2023-02-19T16:46:02;13.00;66.60
73360;DHT22;63092;43.582;19.528;2023-02-19T16:48:27;13.10;66.00
73360;DHT22;63092;43.582;19.528;2023-02-19T16:50:53;13.10;67.00
73360;DHT22;63092;43.582;19.528;2023-02-19T16:53:22;13.10;67.50
73360;DHT22;63092;43.582;19.528;2023-02-19T16:55:49;13.10;67.80
73360;DHT22;63092;43.582;19.528;2023-02-19T16:58:15;13.00;67.50
73360;DHT22;63092;43.582;19.528;2023-02-19T17:00:40;13.00;67.50
73360;DHT22;63092;43.582;19.528;2023-02-19T17:03:09;12.90;67.80
73360;DHT22;63092;43.582;19.528;2023-02-19T17:05:37;12.80;68.40
73360;DHT22;63092;43.582;19.528;2023-02-19T17:08:21;12.80;68.60
73360;DHT22;63092;43.582;19.528;2023-02-19T17:10:47;12.80;68.70
73360;DHT22;63092;43.582;19.528;2023-02-19T17:13:13;12.70;68.60
73360;DHT22;63092;43.582;19.528;2023-02-19T17:15:38;12.60;69.30
73360;DHT22;63092;43.582;19.528;2023-02-19T17:18:04;12.60;69.60
73360;DHT22;63092;43.582;19.528;2023-02-19T17:20:30;12.60;70.10
73360;DHT22;63092;43.582;19.528;2023-02-19T17:22:58;12.50;70.30
73360;DHT22;63092;43.582;19.528;2023-02-19T17:25:24;12.40;70.30
73360;DHT22;63092;43.582;19.528;2023-02-19T17:27:49;12.40;70.60
73360;DHT22;63092;43.582;19.528;2023-02-19T17:30:28;12.40;70.90
73360;DHT22;63092;43.582;19.528;2023-02-19T17:32:54;12.30;71.00
73360;DHT22;63092;43.582;19.528;2023-02-19T17:35:20;12.30;71.20
73360;DHT22;63092;43.582;19.528;2023-02-19T17:37:46;12.20;70.90
73360;DHT22;63092;43.582;19.528;2023-02-19T17:42:44;12.10;72.00
73360;DHT22;63092;43.582;19.528;2023-02-19T17:45:10;12.00;72.70
73360;DHT22;63092;43.582;19.528;2023-02-19T17:47:35;11.90;73.00
73360;DHT22;63092;43.582;19.528;2023-02-19T17:50:01;11.90;73.30